createdAt,value
2022-10-14T00:00:42.984Z,36.80
2022-10-14T00:03:11.224Z,38.27
2022-10-14T00:05:43.372Z,41.77
2022-10-14T00:08:11.705Z,38.27
2022-10-14T00:10:40.412Z,43.83
2022-10-14T00:13:08.919Z,35.90
2022-10-14T00:15:40.834Z,43.50
2022-10-14T00:18:09.348Z,40.03
2022-10-14T00:20:37.755Z,42.07
2022-10-14T00:23:07.857Z,38.60
2022-10-14T00:25:39.387Z,40.07
2022-10-14T00:28:08.006Z,42.00
2022-10-14T00:30:36.193Z,43.37
2022-10-14T00:33:05.072Z,42.40
2022-10-14T00:35:33.265Z,39.30
2022-10-14T00:38:01.468Z,39.07
2022-10-14T00:40:31.053Z,35.80
2022-10-14T00:42:59.334Z,39.87
2022-10-14T00:45:27.596Z,42.90
2022-10-14T00:47:55.820Z,40.43
2022-10-14T00:50:24.228Z,36.37
2022-10-14T00:52:52.363Z,36.87
2022-10-14T00:55:21.063Z,38.80
2022-10-14T00:57:50.702Z,36.77
2022-10-14T01:00:20.466Z,40.70
2022-10-14T01:02:49.713Z,36.67
2022-10-14T01:05:19.474Z,43.93
2022-10-14T01:07:56.103Z,45.57
2022-10-14T01:10:33.256Z,43.20
2022-10-14T01:13:12.467Z,50.53
2022-10-14T01:15:45.604Z,44.67
2022-10-14T01:18:21.606Z,50.00
2022-10-14T01:21:04.585Z,49.90
2022-10-14T01:23:55.023Z,44.77
2022-10-14T01:26:38.536Z,50.97
2022-10-14T01:29:18.178Z,54.63
2022-10-14T01:31:50.533Z,53.37
2022-10-14T01:34:22.483Z,59.23
2022-10-14T01:36:54.363Z,50.10
2022-10-14T01:39:25.503Z,49.53
2022-10-14T01:41:56.753Z,46.13
2022-10-14T01:44:26.071Z,63.33
2022-10-14T01:46:56.985Z,55.33
2022-10-14T01:49:29.635Z,52.27
2022-10-14T01:52:03.036Z,57.20
2022-10-14T01:54:33.694Z,47.83
2022-10-14T01:57:04.726Z,55.40
2022-10-14T01:59:33.531Z,58.03
2022-10-14T02:02:03.245Z,47.77
2022-10-14T02:04:31.640Z,47.23
2022-10-14T02:07:05.535Z,43.23
2022-10-14T02:09:40.435Z,51.87
2022-10-14T02:12:16.134Z,49.63
2022-10-14T02:14:47.936Z,47.37
2022-10-14T02:17:21.353Z,47.00
2022-10-14T02:19:53.654Z,44.77
2022-10-14T02:22:26.267Z,47.73
2022-10-14T02:24:56.735Z,45.13
2022-10-14T02:27:26.832Z,45.70
2022-10-14T02:29:55.851Z,51.90
2022-10-14T02:32:26.172Z,49.27
2022-10-14T02:34:56.281Z,43.53
2022-10-14T02:37:25.082Z,49.37
2022-10-14T02:39:56.972Z,44.57
2022-10-14T02:42:25.083Z,44.10
2022-10-14T02:44:54.377Z,48.17
2022-10-14T02:47:24.387Z,46.73
2022-10-14T02:49:53.014Z,50.43
2022-10-14T02:52:21.979Z,49.13
2022-10-14T02:54:50.293Z,51.67
2022-10-14T02:57:18.533Z,52.57
2022-10-14T02:59:46.702Z,47.83
2022-10-14T03:02:14.929Z,53.10
2022-10-14T03:04:44.533Z,54.43
2022-10-14T03:07:12.691Z,55.10
2022-10-14T03:09:40.880Z,48.07
2022-10-14T03:12:09.124Z,49.50
2022-10-14T03:14:37.196Z,52.30
2022-10-14T03:17:05.305Z,48.63
2022-10-14T03:19:35.156Z,47.77
2022-10-14T03:22:05.052Z,52.93
2022-10-14T03:24:33.125Z,53.30
2022-10-14T03:27:01.193Z,51.50
2022-10-14T03:29:29.347Z,46.57
2022-10-14T03:31:57.571Z,49.57
2022-10-14T03:34:25.634Z,55.03
2022-10-14T03:36:53.722Z,55.17
2022-10-14T03:39:23.203Z,55.97
2022-10-14T03:41:51.373Z,58.43
2022-10-14T03:44:19.443Z,54.07
2022-10-14T03:46:47.512Z,67.43
2022-10-14T03:49:15.614Z,52.93
2022-10-14T03:51:43.745Z,56.80
2022-10-14T03:54:11.813Z,55.30
2022-10-14T03:56:41.312Z,55.17
2022-10-14T03:59:09.372Z,57.10
2022-10-14T04:01:37.577Z,62.00
2022-10-14T04:04:05.823Z,54.40
2022-10-14T04:06:34.044Z,58.67
2022-10-14T04:09:02.130Z,60.73
2022-10-14T04:11:30.192Z,54.47
2022-10-14T04:14:00.733Z,50.67
2022-10-14T04:16:28.952Z,59.60
2022-10-14T04:18:57.041Z,60.77
2022-10-14T04:21:25.192Z,53.73
2022-10-14T04:23:53.323Z,61.80
2022-10-14T04:26:21.452Z,57.57
2022-10-14T04:28:49.629Z,55.13
2022-10-14T04:31:19.332Z,55.30
2022-10-14T04:33:47.382Z,51.33
2022-10-14T04:36:15.535Z,50.20
2022-10-14T04:38:43.632Z,53.57
2022-10-14T04:41:11.672Z,65.77
2022-10-14T04:43:39.794Z,60.20
2022-10-14T04:46:08.973Z,52.57
2022-10-14T04:48:38.445Z,57.33
2022-10-14T04:51:06.980Z,59.57
2022-10-14T04:53:35.054Z,51.33
2022-10-14T04:56:03.148Z,57.60
2022-10-14T04:58:31.315Z,52.23
2022-10-14T05:00:59.482Z,62.40
2022-10-14T05:03:27.535Z,60.40
2022-10-14T05:05:57.072Z,59.97
2022-10-14T05:08:25.096Z,72.30
2022-10-14T05:10:53.283Z,60.97
2022-10-14T05:13:21.485Z,76.47
2022-10-14T05:15:50.063Z,61.03
2022-10-14T05:18:18.143Z,61.40
2022-10-14T05:20:46.286Z,63.93
2022-10-14T05:23:15.955Z,59.07
2022-10-14T05:25:44.136Z,59.87
2022-10-14T05:28:12.216Z,66.17
2022-10-14T05:30:40.286Z,58.53
2022-10-14T05:33:08.376Z,68.97
2022-10-14T05:35:57.713Z,59.50
2022-10-14T05:38:26.035Z,69.90
2022-10-14T05:40:54.885Z,60.10
2022-10-14T05:43:29.365Z,60.70
2022-10-14T05:45:59.272Z,56.47
2022-10-14T05:48:27.460Z,58.93
2022-10-14T05:50:55.528Z,58.03
2022-10-14T05:53:23.755Z,57.53
2022-10-14T05:55:53.245Z,60.37
2022-10-14T05:58:21.386Z,52.57
2022-10-14T06:00:49.426Z,65.80
2022-10-14T06:03:17.554Z,61.80
2022-10-14T06:05:46.677Z,61.67
2022-10-14T06:08:14.772Z,63.87
2022-10-14T06:10:42.953Z,58.60
2022-10-14T06:13:12.553Z,56.60
2022-10-14T06:15:40.670Z,62.47
2022-10-14T06:18:08.787Z,56.00
2022-10-14T06:20:36.885Z,51.87
2022-10-14T06:23:05.116Z,53.57
2022-10-14T06:25:33.352Z,57.13
2022-10-14T06:28:04.057Z,56.27
2022-10-14T06:30:33.594Z,46.13
2022-10-14T06:33:01.692Z,51.83
2022-10-14T06:35:29.815Z,52.40
2022-10-14T06:37:58.045Z,46.40
2022-10-14T06:40:26.384Z,48.43
2022-10-14T06:42:54.491Z,51.53
2022-10-14T06:45:22.522Z,51.90
2022-10-14T06:47:52.046Z,48.37
2022-10-14T06:50:20.232Z,54.53
2022-10-14T06:52:48.650Z,49.20
2022-10-14T06:55:17.376Z,49.43
2022-10-14T06:57:45.814Z,45.60
2022-10-14T07:00:14.600Z,50.83
2022-10-14T07:02:43.260Z,46.23
2022-10-14T07:05:12.911Z,43.03
2022-10-14T07:07:41.045Z,46.77
2022-10-14T07:10:09.820Z,40.00
2022-10-14T07:12:37.954Z,46.33
2022-10-14T07:15:06.716Z,44.80
2022-10-14T07:17:34.936Z,44.77
2022-10-14T07:20:03.015Z,41.83
2022-10-14T07:22:37.643Z,42.63
2022-10-14T07:25:07.771Z,42.63
2022-10-14T07:27:35.965Z,43.17
2022-10-14T07:30:04.420Z,39.87
2022-10-14T07:32:32.496Z,49.47
2022-10-14T07:35:00.516Z,43.77
2022-10-14T07:37:28.605Z,50.30
2022-10-14T07:39:58.100Z,42.67
2022-10-14T07:42:26.300Z,47.17
2022-10-14T07:44:55.200Z,46.07
2022-10-14T07:47:23.876Z,45.90
2022-10-14T07:49:52.154Z,54.23
2022-10-14T07:52:20.345Z,45.47
2022-10-14T07:54:48.459Z,44.50
2022-10-14T07:57:17.965Z,52.50
2022-10-14T07:59:46.855Z,48.27
2022-10-14T08:02:14.921Z,43.50
2022-10-14T08:04:42.959Z,53.07
2022-10-14T08:07:11.092Z,48.50
2022-10-14T08:09:39.166Z,47.83
2022-10-14T08:12:07.815Z,49.53
2022-10-14T08:14:37.645Z,49.07
2022-10-14T08:17:05.780Z,47.50
2022-10-14T08:19:34.010Z,47.07
2022-10-14T08:22:02.103Z,47.63
2022-10-14T08:24:30.228Z,42.00
2022-10-14T08:27:01.205Z,45.37
2022-10-14T08:29:29.271Z,47.50
2022-10-14T08:31:58.750Z,46.70
2022-10-14T08:34:26.802Z,50.80
2022-10-14T08:36:54.879Z,40.53
2022-10-14T08:39:23.156Z,43.63
2022-10-14T08:42:16.335Z,44.37
2022-10-14T08:44:46.693Z,42.93
2022-10-14T08:47:17.510Z,39.93
2022-10-14T08:49:54.231Z,38.50
2022-10-14T08:52:25.017Z,37.77
2022-10-14T08:54:57.532Z,33.97
2022-10-14T08:57:28.324Z,38.70
2022-10-14T08:59:57.403Z,38.13
2022-10-14T09:02:35.412Z,38.00
2022-10-14T09:05:05.519Z,42.83
2022-10-14T09:07:34.891Z,40.87
2022-10-14T09:10:05.969Z,41.13
2022-10-14T09:12:36.383Z,37.47
2022-10-14T09:15:10.363Z,39.77
2022-10-14T09:17:43.133Z,44.80
2022-10-14T09:20:20.775Z,35.60
2022-10-14T09:22:59.508Z,37.30
2022-10-14T09:25:27.621Z,35.30
2022-10-14T09:27:55.727Z,36.33
2022-10-14T09:30:23.855Z,33.00
2022-10-14T09:32:55.022Z,31.63
2022-10-14T09:35:25.984Z,34.93
2022-10-14T09:37:54.276Z,38.00
2022-10-14T09:40:28.436Z,32.27
2022-10-14T09:42:59.525Z,34.20
2022-10-14T09:45:28.622Z,32.03
2022-10-14T09:48:00.652Z,31.30
2022-10-14T09:50:32.674Z,31.73
2022-10-14T09:53:03.529Z,28.53
2022-10-14T09:55:31.926Z,27.03
2022-10-14T09:58:08.372Z,25.23
2022-10-14T10:00:38.132Z,28.80
2022-10-14T10:03:09.327Z,30.80
2022-10-14T10:05:39.593Z,27.57
2022-10-14T10:08:16.652Z,28.93
2022-10-14T10:11:03.591Z,26.90
2022-10-14T10:13:45.150Z,25.90
2022-10-14T10:16:22.679Z,25.60
2022-10-14T10:18:54.373Z,24.60
2022-10-14T10:21:25.799Z,25.57
2022-10-14T10:23:57.652Z,24.53
2022-10-14T10:26:28.492Z,23.93
2022-10-14T10:28:58.309Z,24.27
2022-10-14T10:31:44.297Z,23.87
2022-10-14T10:34:38.335Z,23.43
2022-10-14T10:37:24.221Z,23.70
2022-10-14T10:40:15.123Z,25.57
2022-10-14T10:42:51.713Z,23.67
2022-10-14T10:45:36.377Z,23.53
2022-10-14T10:48:09.383Z,25.13
2022-10-14T10:50:45.532Z,24.63
2022-10-14T10:53:29.565Z,22.67
2022-10-14T10:56:06.615Z,23.17
2022-10-14T10:58:42.763Z,22.70
2022-10-14T11:01:37.373Z,24.17
2022-10-14T11:04:31.446Z,21.73
2022-10-14T11:07:30.135Z,21.43
2022-10-14T11:10:22.348Z,19.03
2022-10-14T11:12:54.855Z,19.27
2022-10-14T11:15:40.622Z,21.07
2022-10-14T11:18:11.685Z,22.10
2022-10-14T11:20:45.942Z,19.57
2022-10-14T11:24:00.062Z,21.23
2022-10-14T11:26:41.688Z,19.30
2022-10-14T11:29:21.165Z,19.57
2022-10-14T11:31:53.222Z,18.13
2022-10-14T11:34:31.753Z,18.93
2022-10-14T11:37:05.282Z,17.57
2022-10-14T11:39:40.470Z,19.10
2022-10-14T11:42:19.151Z,18.63
2022-10-14T11:44:48.912Z,18.00
2022-10-14T11:47:22.064Z,16.93
2022-10-14T11:49:56.005Z,18.90
2022-10-14T11:52:27.822Z,17.87
2022-10-14T11:55:08.666Z,19.40
2022-10-14T11:57:50.816Z,18.53
2022-10-14T12:01:14.071Z,16.40
2022-10-14T12:03:56.391Z,17.87
2022-10-14T12:06:35.630Z,17.83
2022-10-14T12:09:10.588Z,17.00
2022-10-14T12:11:49.791Z,16.77
2022-10-14T12:14:22.032Z,16.43
2022-10-14T12:16:50.728Z,16.13
2022-10-14T12:19:28.343Z,16.33
2022-10-14T12:22:08.890Z,14.80
2022-10-14T12:25:01.048Z,15.97
2022-10-14T12:27:31.479Z,15.07
2022-10-14T12:30:05.054Z,17.20
2022-10-14T12:32:33.572Z,15.47
2022-10-14T12:35:02.476Z,15.33
2022-10-14T12:37:52.693Z,13.50
2022-10-14T12:40:31.813Z,12.80
2022-10-14T12:43:16.252Z,14.03
2022-10-14T12:46:12.743Z,13.40
2022-10-14T12:48:48.303Z,14.00
2022-10-14T12:51:18.305Z,11.37
2022-10-14T12:53:53.184Z,13.00
2022-10-14T12:56:32.814Z,12.27
2022-10-14T12:59:03.629Z,11.07
2022-10-14T13:01:35.450Z,10.40
2022-10-14T13:04:08.260Z,12.23
2022-10-14T13:06:39.073Z,11.70
2022-10-14T13:09:40.163Z,11.97
2022-10-14T13:12:46.766Z,13.27
2022-10-14T13:15:51.387Z,11.70
2022-10-14T13:19:00.522Z,11.57
2022-10-14T13:21:53.284Z,12.37
2022-10-14T13:24:29.394Z,11.73
2022-10-14T13:27:05.528Z,12.00
2022-10-14T13:29:41.434Z,11.87
2022-10-14T13:32:21.178Z,11.10
2022-10-14T13:34:58.952Z,15.40
2022-10-14T13:37:32.640Z,19.63
2022-10-14T13:42:53.013Z,12.23
2022-10-14T13:45:22.523Z,11.63
2022-10-14T13:47:52.222Z,11.73
2022-10-14T13:50:23.672Z,12.43
2022-10-14T13:52:56.792Z,15.77
2022-10-14T13:55:27.288Z,12.53
2022-10-14T13:58:18.148Z,12.23
2022-10-14T14:00:51.977Z,14.43
2022-10-14T14:03:25.437Z,11.77
2022-10-14T14:05:54.158Z,12.27
2022-10-14T14:08:42.421Z,11.77
2022-10-14T14:11:19.039Z,10.13
2022-10-14T14:13:56.113Z,10.60
2022-10-14T14:16:31.658Z,11.70
2022-10-14T14:19:10.279Z,10.87
2022-10-14T14:21:39.454Z,15.07
2022-10-14T14:24:24.259Z,12.67
2022-10-14T14:26:55.561Z,9.70
2022-10-14T14:29:27.133Z,9.97
2022-10-14T14:32:10.518Z,9.40
2022-10-14T14:34:40.395Z,9.40
2022-10-14T14:39:58.346Z,9.60
2022-10-14T14:42:28.262Z,10.47
2022-10-14T14:44:57.175Z,10.20
2022-10-14T14:47:26.913Z,10.27
2022-10-14T14:50:06.327Z,10.20
2022-10-14T14:52:45.613Z,10.10
2022-10-14T14:55:36.343Z,10.57
2022-10-14T14:58:05.832Z,10.50
2022-10-14T15:00:34.186Z,11.60
2022-10-14T15:03:03.631Z,10.33
2022-10-14T15:05:33.133Z,9.73
2022-10-14T15:08:01.242Z,10.50
2022-10-14T15:10:31.658Z,10.57
2022-10-14T15:13:02.641Z,9.97
2022-10-14T15:15:32.606Z,9.77
2022-10-14T15:18:13.843Z,10.17
2022-10-14T15:20:44.533Z,11.57
2022-10-14T15:23:42.278Z,11.03
2022-10-14T15:26:24.345Z,10.60
2022-10-14T15:29:15.724Z,12.07
2022-10-14T15:31:45.644Z,13.70
2022-10-14T15:34:18.203Z,10.40
2022-10-14T15:36:50.855Z,12.17
2022-10-14T15:39:18.943Z,11.27
2022-10-14T15:41:47.383Z,11.37
2022-10-14T15:44:15.566Z,10.80
2022-10-14T15:47:03.113Z,11.07
2022-10-14T15:49:33.503Z,10.70
2022-10-14T15:52:02.981Z,14.10
2022-10-14T15:54:31.107Z,9.80
2022-10-14T15:56:59.309Z,11.63
2022-10-14T15:59:27.771Z,10.97
2022-10-14T16:01:56.014Z,10.63
2022-10-14T16:04:28.090Z,10.37
2022-10-14T16:06:57.824Z,12.17
2022-10-14T16:09:28.756Z,9.87
2022-10-14T16:12:00.214Z,10.63
2022-10-14T16:14:28.813Z,9.87
2022-10-14T16:16:57.002Z,10.80
2022-10-14T16:19:25.694Z,9.17
2022-10-14T16:21:54.033Z,9.10
2022-10-14T16:24:25.449Z,9.83
2022-10-14T16:26:55.544Z,9.67
2022-10-14T16:29:23.773Z,9.47
2022-10-14T16:31:52.525Z,9.97
2022-10-14T16:34:22.505Z,10.27
2022-10-14T16:36:50.663Z,10.57
2022-10-14T16:39:19.653Z,10.97
2022-10-14T16:41:48.543Z,9.87
2022-10-14T16:44:27.856Z,10.53
2022-10-14T16:47:14.910Z,10.40
2022-10-14T16:49:44.633Z,10.87
2022-10-14T16:52:12.837Z,11.13
2022-10-14T16:54:41.013Z,10.77
2022-10-14T16:57:09.684Z,10.17
2022-10-14T16:59:39.267Z,10.17
2022-10-14T17:02:10.663Z,9.73
2022-10-14T17:04:39.395Z,10.03
2022-10-14T17:07:09.004Z,11.23
2022-10-14T17:09:39.521Z,9.47
2022-10-14T17:12:11.261Z,10.20
2022-10-14T17:14:44.125Z,9.87
2022-10-14T17:17:12.564Z,9.80
2022-10-14T17:19:40.715Z,10.77
2022-10-14T17:22:08.862Z,10.77
2022-10-14T17:24:36.923Z,12.30
2022-10-14T17:27:05.743Z,11.90
2022-10-14T17:29:34.363Z,9.90
2022-10-14T17:32:04.055Z,11.20
2022-10-14T17:34:33.265Z,12.70
2022-10-14T17:37:01.389Z,11.93
2022-10-14T17:39:29.894Z,12.53
2022-10-14T17:41:58.324Z,13.63
2022-10-14T17:44:28.898Z,12.57
2022-10-14T17:46:57.195Z,14.43
2022-10-14T17:49:26.744Z,25.00
2022-10-14T17:51:54.872Z,14.33
2022-10-14T17:54:23.051Z,14.20
2022-10-14T17:56:51.184Z,15.30
2022-10-14T17:59:19.373Z,13.53
2022-10-14T18:02:03.949Z,14.27
2022-10-14T18:04:34.064Z,13.70
2022-10-14T18:07:02.189Z,14.13
2022-10-14T18:09:30.273Z,14.83
2022-10-14T18:12:13.742Z,15.97
2022-10-14T18:14:42.106Z,13.97
2022-10-14T18:17:12.536Z,13.50
2022-10-14T18:19:42.413Z,12.50
2022-10-14T18:22:11.410Z,11.63
2022-10-14T18:24:39.729Z,11.43
2022-10-14T18:27:08.098Z,12.20
2022-10-14T18:29:36.187Z,14.60
2022-10-14T18:32:04.387Z,20.87
2022-10-14T18:34:32.979Z,16.53
2022-10-14T18:37:02.486Z,13.97
2022-10-14T18:39:30.542Z,11.87
2022-10-14T18:41:58.835Z,11.63
2022-10-14T18:44:27.107Z,11.83
2022-10-14T18:46:55.236Z,12.07
2022-10-14T18:49:23.544Z,10.80
2022-10-14T18:51:53.311Z,11.53
2022-10-14T18:54:25.017Z,12.70
2022-10-14T18:56:53.426Z,12.23
2022-10-14T18:59:23.154Z,13.33
2022-10-14T19:01:53.405Z,11.90
2022-10-14T19:04:23.828Z,11.37
2022-10-14T19:06:52.048Z,11.83
2022-10-14T19:09:24.852Z,10.40
2022-10-14T19:11:53.414Z,11.70
2022-10-14T19:14:23.043Z,12.20
2022-10-14T19:16:51.325Z,10.87
2022-10-14T19:19:20.724Z,10.40
2022-10-14T19:21:50.444Z,10.70
2022-10-14T19:24:18.714Z,12.20
2022-10-14T19:26:50.162Z,11.47
2022-10-14T19:29:18.587Z,11.33
2022-10-14T19:31:46.963Z,11.87
2022-10-14T19:34:16.642Z,11.30
2022-10-14T19:36:45.997Z,11.30
2022-10-14T19:39:15.404Z,9.73
2022-10-14T19:41:45.085Z,9.37
2022-10-14T19:44:15.868Z,22.00
2022-10-14T19:46:44.634Z,11.20
2022-10-14T19:49:14.028Z,10.60
2022-10-14T19:51:42.210Z,11.10
2022-10-14T19:54:11.243Z,10.90
2022-10-14T19:56:39.346Z,11.10
2022-10-14T19:59:07.643Z,10.37
2022-10-14T20:01:37.267Z,11.07
2022-10-14T20:04:05.646Z,9.40
2022-10-14T20:06:35.902Z,9.17
2022-10-14T20:09:04.364Z,9.63
2022-10-14T20:11:32.563Z,8.37
2022-10-14T20:14:00.767Z,8.93
2022-10-14T20:16:28.915Z,8.27
2022-10-14T20:18:58.376Z,8.83
2022-10-14T20:21:26.736Z,8.97
2022-10-14T20:23:54.931Z,8.30
2022-10-14T20:26:23.448Z,7.47
2022-10-14T20:28:52.244Z,7.13
2022-10-14T20:31:21.962Z,7.23
2022-10-14T20:33:50.466Z,6.73
2022-10-14T20:36:21.289Z,7.80
2022-10-14T20:38:49.842Z,7.30
2022-10-14T20:41:20.271Z,7.97
2022-10-14T20:43:48.701Z,7.60
2022-10-14T20:46:17.086Z,7.37
2022-10-14T20:48:45.371Z,12.63
2022-10-14T20:51:15.732Z,9.50
2022-10-14T20:53:45.360Z,7.20
2022-10-14T20:56:14.335Z,9.90
2022-10-14T20:58:42.741Z,10.13
2022-10-14T21:01:12.871Z,6.77
2022-10-14T21:03:41.378Z,6.17
2022-10-14T21:06:10.803Z,5.97
2022-10-14T21:08:39.516Z,6.47
2022-10-14T21:11:13.823Z,7.33
2022-10-14T21:13:45.844Z,6.93
2022-10-14T21:16:15.814Z,6.20
2022-10-14T21:18:47.076Z,6.63
2022-10-14T21:21:16.832Z,6.70
2022-10-14T21:23:45.753Z,7.20
2022-10-14T21:26:15.333Z,7.83
2022-10-14T21:28:43.624Z,10.90
2022-10-14T21:31:15.982Z,7.40
2022-10-14T21:33:47.137Z,8.13
2022-10-14T21:36:16.992Z,10.47
2022-10-14T21:38:45.365Z,8.10
2022-10-14T21:41:14.995Z,10.27
2022-10-14T21:43:43.165Z,8.93
2022-10-14T21:46:13.092Z,7.70
2022-10-14T21:48:42.053Z,7.20
2022-10-14T21:51:12.371Z,7.87
2022-10-14T21:53:41.827Z,7.57
2022-10-14T21:56:11.833Z,8.57
2022-10-14T21:58:41.441Z,7.57
2022-10-14T22:01:11.057Z,8.03
2022-10-14T22:03:39.803Z,8.13
2022-10-14T22:06:09.702Z,9.37
2022-10-14T22:08:39.411Z,8.77
2022-10-14T22:11:08.236Z,8.07
2022-10-14T22:13:36.583Z,8.77
2022-10-14T22:16:06.466Z,7.87
2022-10-14T22:18:34.533Z,8.93
2022-10-14T22:21:08.541Z,8.80
2022-10-14T22:23:40.125Z,9.43
2022-10-14T22:26:09.402Z,10.63
2022-10-14T22:28:37.528Z,8.80
2022-10-14T22:31:08.234Z,9.20
2022-10-14T22:33:37.942Z,11.23
2022-10-14T22:36:10.123Z,9.30
2022-10-14T22:38:38.734Z,10.30
2022-10-14T22:41:08.597Z,9.20
2022-10-14T22:43:37.246Z,9.10
2022-10-14T22:46:08.497Z,10.07
2022-10-14T22:48:36.953Z,9.13
2022-10-14T22:51:06.684Z,9.13
2022-10-14T22:53:35.115Z,9.33
2022-10-14T22:56:03.786Z,9.17
2022-10-14T22:58:31.926Z,9.13
2022-10-14T23:01:08.196Z,9.33
2022-10-14T23:03:36.583Z,8.60
2022-10-14T23:06:06.438Z,8.30
2022-10-14T23:08:34.983Z,8.83
2022-10-14T23:11:04.023Z,8.43
2022-10-14T23:13:32.323Z,6.97
2022-10-14T23:16:01.914Z,21.83
2022-10-14T23:18:34.220Z,8.83
2022-10-14T23:21:09.203Z,7.70
2022-10-14T23:23:37.343Z,7.03
2022-10-14T23:26:05.484Z,7.53
2022-10-14T23:28:33.643Z,7.40
2022-10-14T23:31:01.863Z,8.80
2022-10-14T23:33:33.393Z,9.10
2022-10-14T23:36:04.666Z,6.70
2022-10-14T23:38:33.444Z,7.23
2022-10-14T23:41:02.815Z,6.30
2022-10-14T23:43:31.508Z,6.20
2022-10-14T23:45:59.717Z,7.30
2022-10-14T23:48:28.033Z,5.60
2022-10-14T23:50:57.743Z,6.47
2022-10-14T23:53:26.956Z,6.93
2022-10-14T23:55:55.307Z,7.17
2022-10-14T23:58:23.496Z,7.00
